Carnival Pride — H3VU — position and weather

sailwx.info

Track history (hours):
 
Tides and Currents Weather Stations Pressure Air Temp Water Temp Dewpoint Dewpoint Depression Visibility Wind Speed Wind Dir Waves Ship Positions

Carnival Pride

Operator: Carnival Cruise Lines

Last reported at 2016-Feb-11 12:08 UTC. Time now 2016-Feb-12 18:02 UTC.
Position N 25°50' W 077°35'.

Type: Ship. MMSI: 354215000.

Date/timePositionNaut miles runAvg speedWind from/ knotsBaromVisibWave heightAir tempDewpointWater temp
2016-Feb-11 12:08N 25°50' W 077°35'409 8.3
2016-Feb-09 11:00N 32°30' W 079°12'30713.7 290 / 451005.0 6.010.0 5.714.0
2016-Feb-08 12:30N 36°45' W 075°44'910.0
2016-Feb-08 11:33N 36°52' W 075°52'10 9.7
2016-Feb-08 10:33N 36°59' W 076°00'5811.6
2016-Feb-08 05:33N 37°56' W 076°11'1412.7
2016-Feb-08 04:27N 38°10' W 076°14'1412.8
2016-Feb-08 03:19N 38°24' W 076°20'1113.0
2016-Feb-08 02:30N 38°33' W 076°26'1212.9
2016-Feb-08 01:33N 38°45' W 076°26'1413.7
2016-Feb-08 00:31N 38°60' W 076°23'8 8.3
2016-Feb-07 23:33N 39°07' W 076°24'1010.4
2016-Feb-07 22:33N 39°15' W 076°33'2 2.1
2016-Feb-07 21:31N 39°16' W 076°36'0 0.0
2016-Feb-07 20:33N 39°16' W 076°36'0 0.0
2016-Feb-07 19:33N 39°16' W 076°36'0 0.0
2016-Feb-07 18:32N 39°16' W 076°36'0 0.0
2016-Feb-07 17:33N 39°16' W 076°36'0 0.0
2016-Feb-07 16:32N 39°16' W 076°36'0 0.0
2016-Feb-07 15:32N 39°16' W 076°36'0 0.0
2016-Feb-07 14:31N 39°16' W 076°36'0 0.0
2016-Feb-07 13:34N 39°16' W 076°36'6 6.5
2016-Feb-07 12:33N 39°12' W 076°29'1111.4
2016-Feb-07 11:33N 39°02' W 076°23'1212.1
2016-Feb-07 10:33N 38°50' W 076°24'1312.9
2016-Feb-07 09:33N 38°37' W 076°26'1814.7
2016-Feb-07 08:18N 38°19' W 076°18'7816.4
2016-Feb-07 03:34N 37°02' W 076°04'1211.5
2016-Feb-07 02:33N 36°54' W 075°54'10 9.7
2016-Feb-07 01:31N 36°48' W 075°44'12512.6
2016-Feb-06 15:33N 34°42' W 075°43'1816.4
2016-Feb-06 14:29N 34°30' W 075°59'1616.5
2016-Feb-06 13:30N 34°18' W 076°12'56011.1
2016-Feb-04 11:00N 31°30' W 065°36'85930.1 050 / 301013.0 0.1 5.025.022.022.0
2016-Feb-03 06:27N 17°29' W 062°27'1111.9
2016-Feb-03 05:33N 17°21' W 062°20'1211.9
2016-Feb-03 04:33N 17°12' W 062°12'1211.5
2016-Feb-03 03:32N 17°00' W 062°13'1111.7
2016-Feb-03 02:33N 16°50' W 062°18'1212.0
2016-Feb-03 01:33N 16°40' W 062°26'  
Track history (hours):
 
Tides and Currents Weather Stations Pressure Air Temp Water Temp Dewpoint Dewpoint Depression Visibility Wind Speed Wind Dir Waves Ship Positions

Carnival Pride

Operator: Carnival Cruise Lines

Last reported at 2016-Feb-11 12:08 UTC. Time now 2016-Feb-12 18:02 UTC.
Position N 25°50' W 077°35'.

Type: Ship. MMSI: 354215000.

Date/timePositionNaut miles runAvg speedWind from/ knotsBaromVisibWave heightAir tempDewpointWater temp
2016-Feb-11 12:08N 25°50' W 077°35'409 8.3
2016-Feb-09 11:00N 32°30' W 079°12'30713.7 290 / 451005.0 6.010.0 5.714.0
2016-Feb-08 12:30N 36°45' W 075°44'910.0
2016-Feb-08 11:33N 36°52' W 075°52'10 9.7
2016-Feb-08 10:33N 36°59' W 076°00'5811.6
2016-Feb-08 05:33N 37°56' W 076°11'1412.7
2016-Feb-08 04:27N 38°10' W 076°14'1412.8
2016-Feb-08 03:19N 38°24' W 076°20'1113.0
2016-Feb-08 02:30N 38°33' W 076°26'1212.9
2016-Feb-08 01:33N 38°45' W 076°26'1413.7
2016-Feb-08 00:31N 38°60' W 076°23'8 8.3
2016-Feb-07 23:33N 39°07' W 076°24'1010.4
2016-Feb-07 22:33N 39°15' W 076°33'2 2.1
2016-Feb-07 21:31N 39°16' W 076°36'0 0.0
2016-Feb-07 20:33N 39°16' W 076°36'0 0.0
2016-Feb-07 19:33N 39°16' W 076°36'0 0.0
2016-Feb-07 18:32N 39°16' W 076°36'0 0.0
2016-Feb-07 17:33N 39°16' W 076°36'0 0.0
2016-Feb-07 16:32N 39°16' W 076°36'0 0.0
2016-Feb-07 15:32N 39°16' W 076°36'0 0.0
2016-Feb-07 14:31N 39°16' W 076°36'0 0.0
2016-Feb-07 13:34N 39°16' W 076°36'6 6.5
2016-Feb-07 12:33N 39°12' W 076°29'1111.4
2016-Feb-07 11:33N 39°02' W 076°23'1212.1
2016-Feb-07 10:33N 38°50' W 076°24'1312.9
2016-Feb-07 09:33N 38°37' W 076°26'1814.7
2016-Feb-07 08:18N 38°19' W 076°18'7816.4
2016-Feb-07 03:34N 37°02' W 076°04'1211.5
2016-Feb-07 02:33N 36°54' W 075°54'10 9.7
2016-Feb-07 01:31N 36°48' W 075°44'12512.6
2016-Feb-06 15:33N 34°42' W 075°43'1816.4
2016-Feb-06 14:29N 34°30' W 075°59'1616.5
2016-Feb-06 13:30N 34°18' W 076°12'56011.1
2016-Feb-04 11:00N 31°30' W 065°36'85930.1 050 / 301013.0 0.1 5.025.022.022.0
2016-Feb-03 06:27N 17°29' W 062°27'1111.9
2016-Feb-03 05:33N 17°21' W 062°20'1211.9
2016-Feb-03 04:33N 17°12' W 062°12'1211.5
2016-Feb-03 03:32N 17°00' W 062°13'1111.7
2016-Feb-03 02:33N 16°50' W 062°18'1212.0
2016-Feb-03 01:33N 16°40' W 062°26'  

Dump ship's entire track history